Flight Track Log - Related Links

Times and Time Zones

All times are in EDT time to prevent confusion due to time zone crossing. See the SWA1668 flight status page for this flight to view local times or setup timezone preferences in your user account.

Time Position Orientation Groundspeed Altitude Reporting Facility
EDT Latitude Longitude Course Direction KTS MPH feet Rate Location/Type
Tue 10:07:30 PM 37.7333 -122.2667 345° North 171 197 2,500  Level Northern Cal TRACON
Tue 10:08:25 PM 37.7833 -122.2833 345° North 224 258 4,100 1,857 Climbing Northern Cal TRACON
Tue 10:08:54 PM 37.8000 -122.2550 53° Northeast 224 258 5,100 3,133 Climbing Oakland Center
Tue 10:09:55 PM 37.8283 -122.1719 67° East 256 295 8,800 3,148 Climbing Oakland Center
Tue 10:10:56 PM 37.8664 -122.0797 62° Northeast 293 337 11,500 3,738 Climbing Oakland Center
Tue 10:11:57 PM 37.9164 -121.9511 64° Northeast 339 390 16,400 3,885 Climbing Oakland Center
Tue 10:12:58 PM 37.9597 -121.8406 64° Northeast 350 403 19,400 2,902 Climbing Oakland Center
Tue 10:13:59 PM 38.0078 -121.7192 63° Northeast 381 438 22,300 2,852 Climbing Oakland Center
Tue 10:15:00 PM 38.0558 -121.5969 63° Northeast 389 448 25,200 2,508 Climbing Oakland Center
Tue 10:16:01 PM 38.0989 -121.4831 64° Northeast 398 458 27,400 2,361 Climbing Oakland Center
Tue 10:17:02 PM 38.1594 -121.3269 64° Northeast 411 473 30,000 2,164 Climbing Oakland Center
Tue 10:18:03 PM 38.2106 -121.1942 64° Northeast 419 482 31,800 1,967 Climbing Oakland Center
Tue 10:19:04 PM 38.2608 -121.0617 64° Northeast 420 483 34,000 1,623 Climbing Oakland Center
Tue 10:20:05 PM 38.3139 -120.9272 63° Northeast 426 490 35,100 1,180 Climbing Oakland Center
Tue 10:21:06 PM 38.3658 -120.7864 65° Northeast 441 507 36,400 1,230 Climbing Oakland Center
Tue 10:22:07 PM 38.4197 -120.6450 64° Northeast 447 514 37,600 1,131 Climbing Oakland Center
Tue 10:23:08 PM 38.4731 -120.5011 65° Northeast 451 519 38,700 1,131 Climbing Oakland Center
Tue 10:24:09 PM 38.5275 -120.3567 64° Northeast 453 521 39,900 984 Climbing Oakland Center
Tue 10:25:10 PM 38.5808 -120.2106 65° Northeast 455 524 40,700 541 Climbing Oakland Center
Tue 10:26:11 PM 38.6361 -120.0639 64° Northeast 457 526 41,000 149 Climbing Oakland Center
Tue 10:27:11 PM 38.7019 -119.8892 64° Northeast 456 525 41,000  Level Oakland Center
Tue 10:28:12 PM 38.7481 -119.7608 65° Northeast 457 526 41,000  Level Oakland Center
Tue 10:29:13 PM 38.8014 -119.6164 65° Northeast 451 519 41,000  Level Oakland Center
Tue 10:30:14 PM 38.8542 -119.4700 65° Northeast 453 521 41,000  Level Oakland Center
Tue 10:31:15 PM 38.9144 -119.2936 66° East 452 520 41,000  Level Oakland Center
Tue 10:32:17 PM 38.9675 -119.1483 65° Northeast 450 518 41,000  Level Oakland Center
Tue 10:33:18 PM 39.0189 -119.0031 65° Northeast 450 518 41,000  Level Oakland Center
Tue 10:34:19 PM 39.0717 -118.8586 65° Northeast 449 517 41,000  Level Oakland Center
Tue 10:35:20 PM 39.1231 -118.7139 65° Northeast 450 518 41,000  Level Oakland Center
Tue 10:36:21 PM 39.1736 -118.5692 66° East 451 519 41,000  Level Oakland Center
Tue 10:37:22 PM 39.2239 -118.4269 65° Northeast 453 521 41,000  Level Oakland Center
Tue 10:38:23 PM 39.2764 -118.2764 66° East 454 522 41,000  Level Oakland Center
Tue 10:39:24 PM 39.3278 -118.1297 66° East 452 520 41,000  Level Oakland Center
Tue 10:40:25 PM 39.3892 -117.9531 66° East 452 520 41,000  Level Oakland Center
Tue 10:41:26 PM 39.4336 -117.8028 69° East 450 518 41,000  Level Oakland Center
Tue 10:42:27 PM 39.4767 -117.6517 70° East 448 516 41,000  Level Oakland Center
Tue 10:43:28 PM 39.5192 -117.5011 70° East 446 513 41,000  Level Oakland Center
Tue 10:44:29 PM 39.5606 -117.3583 69° East 444 511 41,000  Level Oakland Center
Tue 10:45:30 PM 39.6072 -117.1903 70° East 444 511 41,000  Level Oakland Center
Tue 10:46:31 PM 39.6472 -117.0469 70° East 443 510 41,000  Level Oakland Center
Tue 10:46:47 PM 39.6603 -116.9975 71° East 444 511 41,000  Level Salt Lake Center
Tue 10:47:48 PM 39.7006 -116.8536 70° East 445 512 41,000  Level Salt Lake Center
Tue 10:48:50 PM 39.7403 -116.7092 70° East 445 512 41,000  Level Salt Lake Center
Tue 10:49:51 PM 39.7861 -116.5400 71° East 447 514 41,000  Level Salt Lake Center
Tue 10:50:52 PM 39.8258 -116.3956 70° East 446 513 41,000  Level Salt Lake Center
Tue 10:51:54 PM 39.8714 -116.2272 71° East 444 511 41,000  Level Salt Lake Center
Tue 10:52:55 PM 39.9106 -116.0825 71° East 445 512 41,000  Level Salt Lake Center
Tue 10:53:56 PM 39.9572 -115.9117 70° East 447 514 41,000  Level Salt Lake Center
Tue 10:54:58 PM 39.9961 -115.7656 71° East 447 514 41,000  Level Salt Lake Center
Tue 10:55:59 PM 40.0342 -115.6197 71° East 445 512 41,000  Level Salt Lake Center
Tue 10:57:01 PM 40.0794 -115.4492 71° East 445 512 41,000  Level Salt Lake Center
Tue 10:58:02 PM 40.1178 -115.3025 71° East 446 513 41,000  Level Salt Lake Center
Tue 10:59:03 PM 40.1619 -115.1317 71° East 445 512 41,000  Level Salt Lake Center
Tue 11:00:05 PM 40.2000 -114.9833 71° East 448 516 41,000  Level Salt Lake Center
Tue 11:01:06 PM 40.2386 -114.8358 71° East 448 516 41,000  Level Salt Lake Center
Tue 11:02:07 PM 40.2811 -114.6664 72° East 447 514 41,000  Level Salt Lake Center
Tue 11:03:09 PM 40.3208 -114.5122 71° East 447 514 41,000 -390 Level Salt Lake Center
Tue 11:04:10 PM 40.3589 -114.3583 72° East 447 514 40,200 -1,672 Descending Salt Lake Center
Tue 11:05:11 PM 40.3981 -114.2053 71° East 443 510 37,600 -2,293 Descending Salt Lake Center
Tue 11:06:13 PM 40.4347 -114.0536 72° East 440 506 35,500 -2,390 Descending Salt Lake Center
Tue 11:07:14 PM 40.4694 -113.9114 72° East 417 480 32,700 -2,213 Descending Salt Lake Center
Tue 11:08:15 PM 40.5022 -113.7786 72° East 389 448 31,000 -1,902 Descending Salt Lake Center
Tue 11:09:17 PM 40.5389 -113.6314 72° East 356 410 28,800 -2,000 Descending Salt Lake Center
Tue 11:10:18 PM 40.5675 -113.5133 72° East 343 395 26,900 -1,869 Descending Salt Lake Center
Tue 11:11:19 PM 40.5956 -113.3911 73° East 349 402 25,000 -1,869 Descending Salt Lake Center
Tue 11:12:20 PM 40.6278 -113.2675 71° East 355 409 23,100 -1,854 Descending Salt Lake Center
Tue 11:13:22 PM 40.6539 -113.1447 74° East 352 405 21,200 -1,854 Descending Salt Lake Center
Tue 11:14:23 PM 40.6828 -113.0250 72° East 344 396 19,300 -1,820 Descending Salt Lake Center
Tue 11:15:24 PM 40.7106 -112.9086 72° East 337 388 17,500 -1,113 Descending Salt Lake Center
Tue 11:16:27 PM 40.7242 -112.7792 82° East 317 365 17,000 -268 Descending Salt Lake Center
Tue 11:17:16 PM 40.7233 -112.6833 91° East 309 356 17,000 -545 Level Salt Lake Center
Tue 11:18:17 PM 40.7217 -112.5736 91° East 303 349 16,000 -1,041 Descending Salt Lake Center
Tue 11:19:17 PM 40.7200 -112.4642 91° East 299 344 14,900 -1,289 Descending Salt Lake Center
Tue 11:20:18 PM 40.7142 -112.3558 94° East 300 345 13,400 -1,512 Descending Salt Lake Center
Tue 11:21:24 PM 40.7158 -112.2308 89° East 300 345 11,700 -1,134 Descending Salt Lake Center
Tue 11:22:25 PM 40.7331 -112.1317 77° East 286 329 11,000 -1,328 Descending Salt Lake Center
Tue 11:23:26 PM 40.8067 -112.1011 17° North 298 343 9,000 -1,662 Descending Salt Lake Center
Tue 11:24:35 PM 40.8903 -112.1078 357° North 290 334 7,400 -992 Descending Salt Lake Center
Tue 11:25:27 PM 40.9422 -112.0781 23° Northeast 235 270 7,000 -750 Descending Salt Lake Center
Tue 11:26:27 PM 40.9150 -112.0161 120° Southeast 197 227 6,000 -744 Descending Salt Lake Center
Tue 11:27:28 PM 40.8744 -112.0072 171° South 145 167 5,500 -590 Descending Salt Lake Center
Tue 11:28:29 PM 40.8350 -112.0036 176° South 140 161 4,800 -541 Descending Salt Lake Center
Tue 11:29:41 PM 40.7928 -111.9969 173° South 131 151 4,300 -417 Descending Salt Lake Center
Tue 11:31:00 PM 40.7884 -111.9778 159° South  Level Estimated

Login

Don't have an account? Register now (free) for customized features, flight alerts, and more!